<?xml version="1.0" encoding="UTF-8" standalone="no" ?>
<gpx xmlns="http://www.topografix.com/GPX/1/1" xmlns:xsi="http://www.w3.org/2001/XMLSchema-instance" creator="Kurviger.de" version="1.1" xmlns:gh="https://kurviger.de/public/schema/gpx/1.1">
<metadata>
<name>05 2025 - Restaurant Schult, Dorsten - Hof Emschermündung, Dinslaken</name>
<copyright author="OpenStreetMap contributors"/>
<link href="https://kurviger.de">
<text>Kurviger.de GPX</text>
</link>
<time>2025-05-17T12:09:27Z</time>
</metadata>
<wpt lat="51.657642" lon="6.901496"><name>Continue</name><desc>Continue</desc><sym>Flag, Green</sym><type>start</type></wpt>
<wpt lat="51.6518" lon="6.842232"><name>Waypoint 1</name><desc>Waypoint 1</desc><sym>Flag, Blue</sym><type>via</type></wpt>
<wpt lat="51.608987" lon="6.782673"><name>Waypoint 2</name><desc>Waypoint 2</desc><sym>Flag, Blue</sym><type>via</type></wpt>
<wpt lat="51.628985" lon="6.737084"><name>Waypoint 3</name><desc>Waypoint 3</desc><sym>Flag, Blue</sym><type>via</type></wpt>
<wpt lat="51.629664" lon="6.692651"><name>Waypoint 4</name><desc>Waypoint 4</desc><sym>Flag, Blue</sym><type>via</type></wpt>
<wpt lat="51.632729" lon="6.636063"><name>Waypoint 5</name><desc>Waypoint 5</desc><sym>Flag, Blue</sym><type>via</type></wpt>
<wpt lat="51.597551" lon="6.60994"><name>Waypoint 6</name><desc>Waypoint 6</desc><sym>Flag, Blue</sym><type>via</type></wpt>
<wpt lat="51.56319" lon="6.697092"><name>Arrive at destination</name><desc>Arrive at destination</desc><sym>Flag, Red</sym><type>destination</type></wpt>
<rte><name>05 2025 - Restaurant Schult, Dorsten - Hof Emschermündung, Dinslaken</name>
<rtept lat="51.657642" lon="6.901496"><name>Continue</name><desc>Continue</desc><sym>Flag, Green</sym><type>start</type></rtept>
<rtept lat="51.6518" lon="6.842232"><name>Waypoint 1</name><desc>Waypoint 1</desc><sym>Flag, Blue</sym><type>via</type></rtept>
<rtept lat="51.608987" lon="6.782673"><name>Waypoint 2</name><desc>Waypoint 2</desc><sym>Flag, Blue</sym><type>via</type></rtept>
<rtept lat="51.628985" lon="6.737084"><name>Waypoint 3</name><desc>Waypoint 3</desc><sym>Flag, Blue</sym><type>via</type></rtept>
<rtept lat="51.629664" lon="6.692651"><name>Waypoint 4</name><desc>Waypoint 4</desc><sym>Flag, Blue</sym><type>via</type></rtept>
<rtept lat="51.632729" lon="6.636063"><name>Waypoint 5</name><desc>Waypoint 5</desc><sym>Flag, Blue</sym><type>via</type></rtept>
<rtept lat="51.597551" lon="6.60994"><name>Waypoint 6</name><desc>Waypoint 6</desc><sym>Flag, Blue</sym><type>via</type></rtept>
<rtept lat="51.56319" lon="6.697092"><name>Arrive at destination</name><desc>Arrive at destination</desc><sym>Flag, Red</sym><type>destination</type></rtept>
</rte>
<trk><name>05 2025 - Restaurant Schult, Dorsten - Hof Emschermündung, Dinslaken</name><trkseg>
<trkpt lat="51.657642" lon="6.901496"><ele>41.93</ele><time>2025-05-17T12:09:27Z</time></trkpt>
<trkpt lat="51.657983" lon="6.901792"><ele>39.93</ele><time>2025-05-17T12:09:39Z</time></trkpt>
<trkpt lat="51.659382" lon="6.897321"><ele>41.73</ele><time>2025-05-17T12:09:44Z</time></trkpt>
<trkpt lat="51.659825" lon="6.895882"><ele>40.83</ele><time>2025-05-17T12:09:49Z</time></trkpt>
<trkpt lat="51.660302" lon="6.894168"><ele>45.82</ele><time>2025-05-17T12:09:53Z</time></trkpt>
<trkpt lat="51.661864" lon="6.88835"><ele>46.96</ele><time>2025-05-17T12:09:58Z</time></trkpt>
<trkpt lat="51.661991" lon="6.887928"><ele>46.83</ele><time>2025-05-17T12:10:03Z</time></trkpt>
<trkpt lat="51.662226" lon="6.887304"><ele>44.99</ele><time>2025-05-17T12:10:07Z</time></trkpt>
<trkpt lat="51.662587" lon="6.886465"><ele>43.41</ele><time>2025-05-17T12:10:12Z</time></trkpt>
<trkpt lat="51.662735" lon="6.886185"><ele>43.77</ele><time>2025-05-17T12:10:17Z</time></trkpt>
<trkpt lat="51.66299" lon="6.885699"><ele>45.0</ele><time>2025-05-17T12:10:21Z</time></trkpt>
<trkpt lat="51.663631" lon="6.884803"><ele>45.71</ele><time>2025-05-17T12:10:26Z</time></trkpt>
<trkpt lat="51.663987" lon="6.884402"><ele>45.4</ele><time>2025-05-17T12:10:31Z</time></trkpt>
<trkpt lat="51.664661" lon="6.883821"><ele>42.17</ele><time>2025-05-17T12:10:35Z</time></trkpt>
<trkpt lat="51.66538" lon="6.883247"><ele>38.94</ele><time>2025-05-17T12:10:40Z</time></trkpt>
<trkpt lat="51.665892" lon="6.882785"><ele>39.97</ele><time>2025-05-17T12:10:45Z</time></trkpt>
<trkpt lat="51.666225" lon="6.882433"><ele>40.69</ele><time>2025-05-17T12:10:49Z</time></trkpt>
<trkpt lat="51.666548" lon="6.882033"><ele>40.54</ele><time>2025-05-17T12:10:54Z</time></trkpt>
<trkpt lat="51.666781" lon="6.881702"><ele>40.87</ele><time>2025-05-17T12:10:59Z</time></trkpt>
<trkpt lat="51.667029" lon="6.881305"><ele>41.0</ele><time>2025-05-17T12:11:03Z</time></trkpt>
<trkpt lat="51.66725" lon="6.880898"><ele>40.92</ele><time>2025-05-17T12:11:08Z</time></trkpt>
<trkpt lat="51.667582" lon="6.880176"><ele>38.41</ele><time>2025-05-17T12:11:13Z</time></trkpt>
<trkpt lat="51.667884" lon="6.879361"><ele>37.57</ele><time>2025-05-17T12:11:17Z</time></trkpt>
<trkpt lat="51.668132" lon="6.878463"><ele>37.3</ele><time>2025-05-17T12:11:22Z</time></trkpt>
<trkpt lat="51.66824" lon="6.877979"><ele>36.67</ele><time>2025-05-17T12:11:27Z</time></trkpt>
<trkpt lat="51.668636" lon="6.875851"><ele>34.67</ele><time>2025-05-17T12:11:31Z</time></trkpt>
<trkpt lat="51.668676" lon="6.875637"><ele>34.85</ele><time>2025-05-17T12:11:36Z</time></trkpt>
<trkpt lat="51.670075" lon="6.867927"><ele>32.0</ele><time>2025-05-17T12:11:41Z</time></trkpt>
<trkpt lat="51.670203" lon="6.867165"><ele>31.64</ele><time>2025-05-17T12:11:45Z</time></trkpt>
<trkpt lat="51.670254" lon="6.866722"><ele>31.08</ele><time>2025-05-17T12:11:50Z</time></trkpt>
<trkpt lat="51.670314" lon="6.865841"><ele>30.87</ele><time>2025-05-17T12:11:54Z</time></trkpt>
<trkpt lat="51.67031" lon="6.86517"><ele>31.0</ele><time>2025-05-17T12:11:59Z</time></trkpt>
<trkpt lat="51.670185" lon="6.86311"><ele>35.8</ele><time>2025-05-17T12:12:04Z</time></trkpt>
<trkpt lat="51.670209" lon="6.861841"><ele>35.0</ele><time>2025-05-17T12:12:08Z</time></trkpt>
<trkpt lat="51.670255" lon="6.861146"><ele>38.75</ele><time>2025-05-17T12:12:20Z</time></trkpt>
<trkpt lat="51.670316" lon="6.860568"><ele>40.82</ele><time>2025-05-17T12:12:32Z</time></trkpt>
<trkpt lat="51.670887" lon="6.856366"><ele>41.0</ele><time>2025-05-17T12:12:44Z</time></trkpt>
<trkpt lat="51.670163" lon="6.856179"><ele>42.31</ele><time>2025-05-17T12:13:06Z</time></trkpt>
<trkpt lat="51.668123" lon="6.855478"><ele>44.58</ele><time>2025-05-17T12:13:27Z</time></trkpt>
<trkpt lat="51.665044" lon="6.854466"><ele>45.06</ele><time>2025-05-17T12:13:49Z</time></trkpt>
<trkpt lat="51.664957" lon="6.854468"><ele>45.22</ele><time>2025-05-17T12:14:10Z</time></trkpt>
<trkpt lat="51.664862" lon="6.854605"><ele>45.78</ele><time>2025-05-17T12:14:32Z</time></trkpt>
<trkpt lat="51.664785" lon="6.854847"><ele>46.45</ele><time>2025-05-17T12:14:53Z</time></trkpt>
<trkpt lat="51.664698" lon="6.855364"><ele>46.91</ele><time>2025-05-17T12:15:15Z</time></trkpt>
<trkpt lat="51.664506" lon="6.85705"><ele>49.3</ele><time>2025-05-17T12:15:37Z</time></trkpt>
<trkpt lat="51.663627" lon="6.85708"><ele>47.03</ele><time>2025-05-17T12:16:10Z</time></trkpt>
<trkpt lat="51.660997" lon="6.857282"><ele>51.41</ele><time>2025-05-17T12:16:44Z</time></trkpt>
<trkpt lat="51.658989" lon="6.85738"><ele>48.0</ele><time>2025-05-17T12:17:18Z</time></trkpt>
<trkpt lat="51.658969" lon="6.857241"><ele>48.0</ele><time>2025-05-17T12:17:43Z</time></trkpt>
<trkpt lat="51.65732" lon="6.851739"><ele>48.87</ele><time>2025-05-17T12:18:08Z</time></trkpt>
<trkpt lat="51.65728" lon="6.850414"><ele>48.58</ele><time>2025-05-17T12:18:32Z</time></trkpt>
<trkpt lat="51.657252" lon="6.850164"><ele>48.78</ele><time>2025-05-17T12:18:57Z</time></trkpt>
<trkpt lat="51.656928" lon="6.848582"><ele>47.94</ele><time>2025-05-17T12:19:22Z</time></trkpt>
<trkpt lat="51.6518" lon="6.842232"><ele>42.0</ele><time>2025-05-17T12:19:46Z</time></trkpt>
<trkpt lat="51.6518" lon="6.842232"><ele>42.0</ele><time>2025-05-17T12:19:46Z</time></trkpt>
<trkpt lat="51.650475" lon="6.840541"><ele>42.0</ele><time>2025-05-17T12:20:18Z</time></trkpt>
<trkpt lat="51.650368" lon="6.840457"><ele>42.0</ele><time>2025-05-17T12:20:49Z</time></trkpt>
<trkpt lat="51.649029" lon="6.840096"><ele>43.5</ele><time>2025-05-17T12:21:20Z</time></trkpt>
<trkpt lat="51.648246" lon="6.839148"><ele>45.31</ele><time>2025-05-17T12:21:51Z</time></trkpt>
<trkpt lat="51.641331" lon="6.828817"><ele>57.69</ele><time>2025-05-17T12:22:23Z</time></trkpt>
<trkpt lat="51.641066" lon="6.830105"><ele>52.96</ele><time>2025-05-17T12:22:32Z</time></trkpt>
<trkpt lat="51.641027" lon="6.83016"><ele>53.04</ele><time>2025-05-17T12:22:41Z</time></trkpt>
<trkpt lat="51.640645" lon="6.830413"><ele>55.65</ele><time>2025-05-17T12:22:50Z</time></trkpt>
<trkpt lat="51.63989" lon="6.830232"><ele>55.7</ele><time>2025-05-17T12:22:59Z</time></trkpt>
<trkpt lat="51.638845" lon="6.830091"><ele>52.6</ele><time>2025-05-17T12:23:08Z</time></trkpt>
<trkpt lat="51.637511" lon="6.829176"><ele>53.03</ele><time>2025-05-17T12:23:17Z</time></trkpt>
<trkpt lat="51.637403" lon="6.829132"><ele>52.88</ele><time>2025-05-17T12:23:27Z</time></trkpt>
<trkpt lat="51.635752" lon="6.829342"><ele>56.63</ele><time>2025-05-17T12:23:36Z</time></trkpt>
<trkpt lat="51.637377" lon="6.824573"><ele>65.45</ele><time>2025-05-17T12:24:26Z</time></trkpt>
<trkpt lat="51.637394" lon="6.824368"><ele>66.89</ele><time>2025-05-17T12:25:17Z</time></trkpt>
<trkpt lat="51.634668" lon="6.809351"><ele>69.4</ele><time>2025-05-17T12:26:08Z</time></trkpt>
<trkpt lat="51.63251" lon="6.808872"><ele>67.94</ele><time>2025-05-17T12:26:21Z</time></trkpt>
<trkpt lat="51.632406" lon="6.808823"><ele>67.42</ele><time>2025-05-17T12:26:34Z</time></trkpt>
<trkpt lat="51.632349" lon="6.808904"><ele>67.51</ele><time>2025-05-17T12:26:52Z</time></trkpt>
<trkpt lat="51.630216" lon="6.809255"><ele>68.16</ele><time>2025-05-17T12:27:10Z</time></trkpt>
<trkpt lat="51.628057" lon="6.809689"><ele>66.0</ele><time>2025-05-17T12:27:27Z</time></trkpt>
<trkpt lat="51.626432" lon="6.809968"><ele>65.18</ele><time>2025-05-17T12:27:45Z</time></trkpt>
<trkpt lat="51.624814" lon="6.810282"><ele>63.01</ele><time>2025-05-17T12:28:03Z</time></trkpt>
<trkpt lat="51.618539" lon="6.810157"><ele>59.56</ele><time>2025-05-17T12:28:20Z</time></trkpt>
<trkpt lat="51.618215" lon="6.810086"><ele>58.88</ele><time>2025-05-17T12:28:38Z</time></trkpt>
<trkpt lat="51.617901" lon="6.809955"><ele>58.4</ele><time>2025-05-17T12:28:56Z</time></trkpt>
<trkpt lat="51.616708" lon="6.80938"><ele>60.62</ele><time>2025-05-17T12:29:14Z</time></trkpt>
<trkpt lat="51.615942" lon="6.808953"><ele>56.62</ele><time>2025-05-17T12:29:31Z</time></trkpt>
<trkpt lat="51.61506" lon="6.807911"><ele>58.19</ele><time>2025-05-17T12:29:49Z</time></trkpt>
<trkpt lat="51.612513" lon="6.80515"><ele>67.48</ele><time>2025-05-17T12:30:07Z</time></trkpt>
<trkpt lat="51.610022" lon="6.802358"><ele>71.92</ele><time>2025-05-17T12:30:25Z</time></trkpt>
<trkpt lat="51.609957" lon="6.802244"><ele>72.15</ele><time>2025-05-17T12:30:42Z</time></trkpt>
<trkpt lat="51.609933" lon="6.802136"><ele>72.24</ele><time>2025-05-17T12:31:00Z</time></trkpt>
<trkpt lat="51.609958" lon="6.801944"><ele>72.15</ele><time>2025-05-17T12:31:18Z</time></trkpt>
<trkpt lat="51.611114" lon="6.798526"><ele>63.3</ele><time>2025-05-17T12:31:36Z</time></trkpt>
<trkpt lat="51.611174" lon="6.798308"><ele>63.72</ele><time>2025-05-17T12:31:53Z</time></trkpt>
<trkpt lat="51.611163" lon="6.798068"><ele>63.22</ele><time>2025-05-17T12:32:11Z</time></trkpt>
<trkpt lat="51.610517" lon="6.794264"><ele>62.65</ele><time>2025-05-17T12:32:29Z</time></trkpt>
<trkpt lat="51.609769" lon="6.789729"><ele>55.17</ele><time>2025-05-17T12:32:46Z</time></trkpt>
<trkpt lat="51.609768" lon="6.788866"><ele>55.82</ele><time>2025-05-17T12:33:04Z</time></trkpt>
<trkpt lat="51.609815" lon="6.788524"><ele>53.04</ele><time>2025-05-17T12:33:22Z</time></trkpt>
<trkpt lat="51.610107" lon="6.787827"><ele>49.68</ele><time>2025-05-17T12:33:40Z</time></trkpt>
<trkpt lat="51.61014" lon="6.787702"><ele>49.63</ele><time>2025-05-17T12:33:57Z</time></trkpt>
<trkpt lat="51.610158" lon="6.78744"><ele>49.81</ele><time>2025-05-17T12:34:15Z</time></trkpt>
<trkpt lat="51.610124" lon="6.787121"><ele>50.4</ele><time>2025-05-17T12:34:33Z</time></trkpt>
<trkpt lat="51.609816" lon="6.785742"><ele>48.77</ele><time>2025-05-17T12:34:51Z</time></trkpt>
<trkpt lat="51.608987" lon="6.782673"><ele>51.12</ele><time>2025-05-17T12:35:08Z</time></trkpt>
<trkpt lat="51.608987" lon="6.782673"><ele>51.12</ele><time>2025-05-17T12:35:08Z</time></trkpt>
<trkpt lat="51.6088" lon="6.781985"><ele>49.83</ele><time>2025-05-17T12:35:29Z</time></trkpt>
<trkpt lat="51.607197" lon="6.777272"><ele>54.09</ele><time>2025-05-17T12:35:50Z</time></trkpt>
<trkpt lat="51.606679" lon="6.77597"><ele>51.49</ele><time>2025-05-17T12:36:11Z</time></trkpt>
<trkpt lat="51.606195" lon="6.774657"><ele>54.63</ele><time>2025-05-17T12:36:31Z</time></trkpt>
<trkpt lat="51.605892" lon="6.773918"><ele>55.39</ele><time>2025-05-17T12:36:52Z</time></trkpt>
<trkpt lat="51.605595" lon="6.773247"><ele>55.36</ele><time>2025-05-17T12:37:13Z</time></trkpt>
<trkpt lat="51.605367" lon="6.772778"><ele>54.0</ele><time>2025-05-17T12:37:34Z</time></trkpt>
<trkpt lat="51.604114" lon="6.77055"><ele>55.98</ele><time>2025-05-17T12:37:54Z</time></trkpt>
<trkpt lat="51.610066" lon="6.766312"><ele>32.96</ele><time>2025-05-17T12:38:03Z</time></trkpt>
<trkpt lat="51.610116" lon="6.766322"><ele>33.17</ele><time>2025-05-17T12:38:12Z</time></trkpt>
<trkpt lat="51.610406" lon="6.76654"><ele>35.55</ele><time>2025-05-17T12:38:21Z</time></trkpt>
<trkpt lat="51.610499" lon="6.766561"><ele>36.04</ele><time>2025-05-17T12:38:31Z</time></trkpt>
<trkpt lat="51.610976" lon="6.766343"><ele>34.4</ele><time>2025-05-17T12:38:40Z</time></trkpt>
<trkpt lat="51.611272" lon="6.766244"><ele>35.74</ele><time>2025-05-17T12:38:49Z</time></trkpt>
<trkpt lat="51.611399" lon="6.766255"><ele>37.16</ele><time>2025-05-17T12:38:58Z</time></trkpt>
<trkpt lat="51.611611" lon="6.766336"><ele>40.35</ele><time>2025-05-17T12:39:07Z</time></trkpt>
<trkpt lat="51.611803" lon="6.766289"><ele>42.83</ele><time>2025-05-17T12:39:16Z</time></trkpt>
<trkpt lat="51.611894" lon="6.7662"><ele>44.14</ele><time>2025-05-17T12:39:25Z</time></trkpt>
<trkpt lat="51.611739" lon="6.764705"><ele>41.49</ele><time>2025-05-17T12:39:34Z</time></trkpt>
<trkpt lat="51.611449" lon="6.762509"><ele>38.18</ele><time>2025-05-17T12:39:43Z</time></trkpt>
<trkpt lat="51.611457" lon="6.762336"><ele>38.84</ele><time>2025-05-17T12:39:52Z</time></trkpt>
<trkpt lat="51.611496" lon="6.762172"><ele>39.75</ele><time>2025-05-17T12:40:01Z</time></trkpt>
<trkpt lat="51.61158" lon="6.761934"><ele>41.72</ele><time>2025-05-17T12:40:10Z</time></trkpt>
<trkpt lat="51.611959" lon="6.761063"><ele>47.11</ele><time>2025-05-17T12:40:19Z</time></trkpt>
<trkpt lat="51.612825" lon="6.758939"><ele>57.0</ele><time>2025-05-17T12:40:28Z</time></trkpt>
<trkpt lat="51.613158" lon="6.759081"><ele>57.74</ele><time>2025-05-17T12:40:32Z</time></trkpt>
<trkpt lat="51.613459" lon="6.759153"><ele>59.9</ele><time>2025-05-17T12:40:36Z</time></trkpt>
<trkpt lat="51.613818" lon="6.759194"><ele>62.39</ele><time>2025-05-17T12:40:40Z</time></trkpt>
<trkpt lat="51.614247" lon="6.759174"><ele>64.26</ele><time>2025-05-17T12:40:44Z</time></trkpt>
<trkpt lat="51.61474" lon="6.759031"><ele>66.39</ele><time>2025-05-17T12:40:48Z</time></trkpt>
<trkpt lat="51.615228" lon="6.758825"><ele>63.53</ele><time>2025-05-17T12:40:52Z</time></trkpt>
<trkpt lat="51.616236" lon="6.758006"><ele>65.35</ele><time>2025-05-17T12:40:56Z</time></trkpt>
<trkpt lat="51.617269" lon="6.75697"><ele>60.39</ele><time>2025-05-17T12:41:00Z</time></trkpt>
<trkpt lat="51.61837" lon="6.755889"><ele>54.77</ele><time>2025-05-17T12:41:04Z</time></trkpt>
<trkpt lat="51.619025" lon="6.755439"><ele>56.91</ele><time>2025-05-17T12:41:07Z</time></trkpt>
<trkpt lat="51.619714" lon="6.755111"><ele>58.0</ele><time>2025-05-17T12:41:11Z</time></trkpt>
<trkpt lat="51.620089" lon="6.755008"><ele>59.32</ele><time>2025-05-17T12:41:15Z</time></trkpt>
<trkpt lat="51.620677" lon="6.754956"><ele>61.87</ele><time>2025-05-17T12:41:19Z</time></trkpt>
<trkpt lat="51.621122" lon="6.754967"><ele>64.04</ele><time>2025-05-17T12:41:23Z</time></trkpt>
<trkpt lat="51.621646" lon="6.75507"><ele>65.0</ele><time>2025-05-17T12:41:27Z</time></trkpt>
<trkpt lat="51.622103" lon="6.755211"><ele>64.18</ele><time>2025-05-17T12:41:31Z</time></trkpt>
<trkpt lat="51.623266" lon="6.755756"><ele>64.14</ele><time>2025-05-17T12:41:35Z</time></trkpt>
<trkpt lat="51.623316" lon="6.75547"><ele>62.44</ele><time>2025-05-17T12:41:48Z</time></trkpt>
<trkpt lat="51.623384" lon="6.755255"><ele>60.75</ele><time>2025-05-17T12:42:01Z</time></trkpt>
<trkpt lat="51.623586" lon="6.754901"><ele>60.29</ele><time>2025-05-17T12:42:14Z</time></trkpt>
<trkpt lat="51.625017" lon="6.753098"><ele>68.2</ele><time>2025-05-17T12:42:27Z</time></trkpt>
<trkpt lat="51.626363" lon="6.751406"><ele>71.06</ele><time>2025-05-17T12:42:40Z</time></trkpt>
<trkpt lat="51.626828" lon="6.749385"><ele>69.78</ele><time>2025-05-17T12:42:53Z</time></trkpt>
<trkpt lat="51.629137" lon="6.738858"><ele>67.22</ele><time>2025-05-17T12:43:06Z</time></trkpt>
<trkpt lat="51.629315" lon="6.738134"><ele>66.6</ele><time>2025-05-17T12:43:19Z</time></trkpt>
<trkpt lat="51.629387" lon="6.737935"><ele>66.21</ele><time>2025-05-17T12:43:32Z</time></trkpt>
<trkpt lat="51.628985" lon="6.737084"><ele>63.77</ele><time>2025-05-17T12:43:38Z</time></trkpt>
<trkpt lat="51.628985" lon="6.737084"><ele>63.77</ele><time>2025-05-17T12:43:38Z</time></trkpt>
<trkpt lat="51.628082" lon="6.735181"><ele>61.01</ele><time>2025-05-17T12:43:48Z</time></trkpt>
<trkpt lat="51.62672" lon="6.732162"><ele>37.8</ele><time>2025-05-17T12:43:58Z</time></trkpt>
<trkpt lat="51.625967" lon="6.73012"><ele>28.48</ele><time>2025-05-17T12:44:08Z</time></trkpt>
<trkpt lat="51.625369" lon="6.728124"><ele>28.59</ele><time>2025-05-17T12:44:18Z</time></trkpt>
<trkpt lat="51.624674" lon="6.725902"><ele>29.58</ele><time>2025-05-17T12:44:28Z</time></trkpt>
<trkpt lat="51.624579" lon="6.725661"><ele>29.49</ele><time>2025-05-17T12:44:38Z</time></trkpt>
<trkpt lat="51.624431" lon="6.725358"><ele>29.0</ele><time>2025-05-17T12:44:48Z</time></trkpt>
<trkpt lat="51.624248" lon="6.725039"><ele>29.0</ele><time>2025-05-17T12:44:58Z</time></trkpt>
<trkpt lat="51.624167" lon="6.724932"><ele>29.0</ele><time>2025-05-17T12:45:08Z</time></trkpt>
<trkpt lat="51.623561" lon="6.72442"><ele>27.09</ele><time>2025-05-17T12:45:18Z</time></trkpt>
<trkpt lat="51.623785" lon="6.723713"><ele>28.87</ele><time>2025-05-17T12:45:25Z</time></trkpt>
<trkpt lat="51.624251" lon="6.722437"><ele>32.22</ele><time>2025-05-17T12:45:33Z</time></trkpt>
<trkpt lat="51.624821" lon="6.721179"><ele>30.89</ele><time>2025-05-17T12:45:41Z</time></trkpt>
<trkpt lat="51.627587" lon="6.715257"><ele>35.06</ele><time>2025-05-17T12:45:49Z</time></trkpt>
<trkpt lat="51.627817" lon="6.7147"><ele>33.79</ele><time>2025-05-17T12:45:57Z</time></trkpt>
<trkpt lat="51.629823" lon="6.710351"><ele>31.19</ele><time>2025-05-17T12:46:05Z</time></trkpt>
<trkpt lat="51.629925" lon="6.710084"><ele>32.92</ele><time>2025-05-17T12:46:12Z</time></trkpt>
<trkpt lat="51.630145" lon="6.709334"><ele>34.21</ele><time>2025-05-17T12:46:20Z</time></trkpt>
<trkpt lat="51.630196" lon="6.709018"><ele>31.93</ele><time>2025-05-17T12:46:28Z</time></trkpt>
<trkpt lat="51.630185" lon="6.708723"><ele>30.2</ele><time>2025-05-17T12:46:36Z</time></trkpt>
<trkpt lat="51.630146" lon="6.70857"><ele>29.38</ele><time>2025-05-17T12:46:44Z</time></trkpt>
<trkpt lat="51.630075" lon="6.708298"><ele>28.3</ele><time>2025-05-17T12:46:52Z</time></trkpt>
<trkpt lat="51.629871" lon="6.707825"><ele>27.53</ele><time>2025-05-17T12:46:59Z</time></trkpt>
<trkpt lat="51.629769" lon="6.707533"><ele>28.05</ele><time>2025-05-17T12:47:07Z</time></trkpt>
<trkpt lat="51.629668" lon="6.707132"><ele>28.13</ele><time>2025-05-17T12:47:15Z</time></trkpt>
<trkpt lat="51.629621" lon="6.706845"><ele>28.64</ele><time>2025-05-17T12:47:23Z</time></trkpt>
<trkpt lat="51.629596" lon="6.70656"><ele>28.16</ele><time>2025-05-17T12:47:31Z</time></trkpt>
<trkpt lat="51.629585" lon="6.705745"><ele>26.5</ele><time>2025-05-17T12:47:39Z</time></trkpt>
<trkpt lat="51.629626" lon="6.698671"><ele>28.65</ele><time>2025-05-17T12:47:46Z</time></trkpt>
<trkpt lat="51.629617" lon="6.697666"><ele>23.57</ele><time>2025-05-17T12:47:54Z</time></trkpt>
<trkpt lat="51.629664" lon="6.692651"><ele>25.49</ele><time>2025-05-17T12:48:02Z</time></trkpt>
<trkpt lat="51.629664" lon="6.692651"><ele>25.49</ele><time>2025-05-17T12:48:02Z</time></trkpt>
<trkpt lat="51.629672" lon="6.691592"><ele>25.61</ele><time>2025-05-17T12:48:07Z</time></trkpt>
<trkpt lat="51.62976" lon="6.691199"><ele>23.23</ele><time>2025-05-17T12:48:09Z</time></trkpt>
<trkpt lat="51.629864" lon="6.691031"><ele>22.2</ele><time>2025-05-17T12:48:10Z</time></trkpt>
<trkpt lat="51.629988" lon="6.690948"><ele>21.46</ele><time>2025-05-17T12:48:12Z</time></trkpt>
<trkpt lat="51.630422" lon="6.690938"><ele>21.02</ele><time>2025-05-17T12:48:32Z</time></trkpt>
<trkpt lat="51.632065" lon="6.690971"><ele>25.43</ele><time>2025-05-17T12:48:51Z</time></trkpt>
<trkpt lat="51.63207" lon="6.686809"><ele>27.96</ele><time>2025-05-17T12:49:02Z</time></trkpt>
<trkpt lat="51.632089" lon="6.686362"><ele>25.37</ele><time>2025-05-17T12:49:14Z</time></trkpt>
<trkpt lat="51.632089" lon="6.686266"><ele>24.84</ele><time>2025-05-17T12:49:25Z</time></trkpt>
<trkpt lat="51.632729" lon="6.685971"><ele>26.33</ele><time>2025-05-17T12:49:29Z</time></trkpt>
<trkpt lat="51.633994" lon="6.685358"><ele>23.66</ele><time>2025-05-17T12:49:34Z</time></trkpt>
<trkpt lat="51.634453" lon="6.685089"><ele>27.07</ele><time>2025-05-17T12:49:38Z</time></trkpt>
<trkpt lat="51.634716" lon="6.684882"><ele>28.53</ele><time>2025-05-17T12:49:43Z</time></trkpt>
<trkpt lat="51.635216" lon="6.68437"><ele>27.52</ele><time>2025-05-17T12:49:47Z</time></trkpt>
<trkpt lat="51.635431" lon="6.684113"><ele>24.59</ele><time>2025-05-17T12:49:52Z</time></trkpt>
<trkpt lat="51.636112" lon="6.683199"><ele>22.0</ele><time>2025-05-17T12:49:56Z</time></trkpt>
<trkpt lat="51.636493" lon="6.682573"><ele>21.09</ele><time>2025-05-17T12:50:01Z</time></trkpt>
<trkpt lat="51.636771" lon="6.681837"><ele>17.61</ele><time>2025-05-17T12:50:05Z</time></trkpt>
<trkpt lat="51.636865" lon="6.681475"><ele>16.31</ele><time>2025-05-17T12:50:10Z</time></trkpt>
<trkpt lat="51.636934" lon="6.681124"><ele>16.0</ele><time>2025-05-17T12:50:14Z</time></trkpt>
<trkpt lat="51.637002" lon="6.680559"><ele>19.19</ele><time>2025-05-17T12:50:19Z</time></trkpt>
<trkpt lat="51.637022" lon="6.679972"><ele>30.74</ele><time>2025-05-17T12:50:23Z</time></trkpt>
<trkpt lat="51.636987" lon="6.679406"><ele>35.15</ele><time>2025-05-17T12:50:28Z</time></trkpt>
<trkpt lat="51.636949" lon="6.67911"><ele>31.37</ele><time>2025-05-17T12:50:32Z</time></trkpt>
<trkpt lat="51.636838" lon="6.678552"><ele>24.38</ele><time>2025-05-17T12:50:36Z</time></trkpt>
<trkpt lat="51.636622" lon="6.677842"><ele>22.12</ele><time>2025-05-17T12:50:41Z</time></trkpt>
<trkpt lat="51.636422" lon="6.677304"><ele>24.59</ele><time>2025-05-17T12:50:45Z</time></trkpt>
<trkpt lat="51.63588" lon="6.675885"><ele>23.02</ele><time>2025-05-17T12:50:50Z</time></trkpt>
<trkpt lat="51.635708" lon="6.675389"><ele>23.75</ele><time>2025-05-17T12:50:54Z</time></trkpt>
<trkpt lat="51.635584" lon="6.674962"><ele>26.26</ele><time>2025-05-17T12:50:59Z</time></trkpt>
<trkpt lat="51.635479" lon="6.674529"><ele>28.65</ele><time>2025-05-17T12:51:03Z</time></trkpt>
<trkpt lat="51.635394" lon="6.674059"><ele>28.42</ele><time>2025-05-17T12:51:08Z</time></trkpt>
<trkpt lat="51.635317" lon="6.673355"><ele>25.95</ele><time>2025-05-17T12:51:12Z</time></trkpt>
<trkpt lat="51.635288" lon="6.672849"><ele>24.32</ele><time>2025-05-17T12:51:17Z</time></trkpt>
<trkpt lat="51.635294" lon="6.671323"><ele>23.11</ele><time>2025-05-17T12:51:21Z</time></trkpt>
<trkpt lat="51.635338" lon="6.666905"><ele>24.55</ele><time>2025-05-17T12:51:26Z</time></trkpt>
<trkpt lat="51.635444" lon="6.655546"><ele>24.8</ele><time>2025-05-17T12:51:30Z</time></trkpt>
<trkpt lat="51.635483" lon="6.651564"><ele>27.22</ele><time>2025-05-17T12:51:35Z</time></trkpt>
<trkpt lat="51.635552" lon="6.650274"><ele>24.97</ele><time>2025-05-17T12:51:39Z</time></trkpt>
<trkpt lat="51.635615" lon="6.649604"><ele>23.21</ele><time>2025-05-17T12:51:44Z</time></trkpt>
<trkpt lat="51.635695" lon="6.648964"><ele>24.87</ele><time>2025-05-17T12:51:48Z</time></trkpt>
<trkpt lat="51.635855" lon="6.647937"><ele>26.24</ele><time>2025-05-17T12:51:52Z</time></trkpt>
<trkpt lat="51.635893" lon="6.647463"><ele>26.64</ele><time>2025-05-17T12:51:57Z</time></trkpt>
<trkpt lat="51.63588" lon="6.647211"><ele>26.53</ele><time>2025-05-17T12:52:01Z</time></trkpt>
<trkpt lat="51.635801" lon="6.646867"><ele>27.28</ele><time>2025-05-17T12:52:06Z</time></trkpt>
<trkpt lat="51.635725" lon="6.646714"><ele>27.83</ele><time>2025-05-17T12:52:10Z</time></trkpt>
<trkpt lat="51.635477" lon="6.646315"><ele>27.0</ele><time>2025-05-17T12:52:15Z</time></trkpt>
<trkpt lat="51.635362" lon="6.646138"><ele>27.0</ele><time>2025-05-17T12:52:19Z</time></trkpt>
<trkpt lat="51.635232" lon="6.645824"><ele>25.13</ele><time>2025-05-17T12:52:24Z</time></trkpt>
<trkpt lat="51.635191" lon="6.645668"><ele>24.72</ele><time>2025-05-17T12:52:28Z</time></trkpt>
<trkpt lat="51.635183" lon="6.64549"><ele>24.1</ele><time>2025-05-17T12:52:33Z</time></trkpt>
<trkpt lat="51.635296" lon="6.64435"><ele>23.36</ele><time>2025-05-17T12:52:37Z</time></trkpt>
<trkpt lat="51.635303" lon="6.644068"><ele>24.12</ele><time>2025-05-17T12:52:42Z</time></trkpt>
<trkpt lat="51.635286" lon="6.643746"><ele>24.06</ele><time>2025-05-17T12:52:46Z</time></trkpt>
<trkpt lat="51.635271" lon="6.643539"><ele>23.95</ele><time>2025-05-17T12:52:51Z</time></trkpt>
<trkpt lat="51.635207" lon="6.643121"><ele>23.69</ele><time>2025-05-17T12:52:55Z</time></trkpt>
<trkpt lat="51.635071" lon="6.642569"><ele>23.26</ele><time>2025-05-17T12:53:00Z</time></trkpt>
<trkpt lat="51.634985" lon="6.642292"><ele>23.05</ele><time>2025-05-17T12:53:04Z</time></trkpt>
<trkpt lat="51.634234" lon="6.640222"><ele>24.76</ele><time>2025-05-17T12:53:08Z</time></trkpt>
<trkpt lat="51.633416" lon="6.637943"><ele>24.41</ele><time>2025-05-17T12:53:13Z</time></trkpt>
<trkpt lat="51.632729" lon="6.636063"><ele>23.47</ele><time>2025-05-17T12:53:17Z</time></trkpt>
<trkpt lat="51.632729" lon="6.636063"><ele>23.47</ele><time>2025-05-17T12:53:17Z</time></trkpt>
<trkpt lat="51.631451" lon="6.632554"><ele>19.19</ele><time>2025-05-17T12:53:22Z</time></trkpt>
<trkpt lat="51.631116" lon="6.631564"><ele>20.38</ele><time>2025-05-17T12:53:27Z</time></trkpt>
<trkpt lat="51.63086" lon="6.630647"><ele>23.61</ele><time>2025-05-17T12:53:32Z</time></trkpt>
<trkpt lat="51.630465" lon="6.628748"><ele>21.83</ele><time>2025-05-17T12:53:36Z</time></trkpt>
<trkpt lat="51.630368" lon="6.628382"><ele>22.67</ele><time>2025-05-17T12:53:41Z</time></trkpt>
<trkpt lat="51.630238" lon="6.628016"><ele>22.43</ele><time>2025-05-17T12:53:46Z</time></trkpt>
<trkpt lat="51.630027" lon="6.627626"><ele>24.16</ele><time>2025-05-17T12:53:50Z</time></trkpt>
<trkpt lat="51.629777" lon="6.627309"><ele>26.27</ele><time>2025-05-17T12:53:55Z</time></trkpt>
<trkpt lat="51.629438" lon="6.627053"><ele>27.36</ele><time>2025-05-17T12:54:00Z</time></trkpt>
<trkpt lat="51.629263" lon="6.626976"><ele>26.46</ele><time>2025-05-17T12:54:04Z</time></trkpt>
<trkpt lat="51.629043" lon="6.62693"><ele>26.0</ele><time>2025-05-17T12:54:09Z</time></trkpt>
<trkpt lat="51.628903" lon="6.626925"><ele>26.0</ele><time>2025-05-17T12:54:14Z</time></trkpt>
<trkpt lat="51.62843" lon="6.626991"><ele>23.89</ele><time>2025-05-17T12:54:19Z</time></trkpt>
<trkpt lat="51.62708" lon="6.627322"><ele>24.74</ele><time>2025-05-17T12:54:23Z</time></trkpt>
<trkpt lat="51.626551" lon="6.627458"><ele>25.52</ele><time>2025-05-17T12:54:28Z</time></trkpt>
<trkpt lat="51.626359" lon="6.627561"><ele>25.22</ele><time>2025-05-17T12:54:33Z</time></trkpt>
<trkpt lat="51.626017" lon="6.627904"><ele>25.66</ele><time>2025-05-17T12:54:37Z</time></trkpt>
<trkpt lat="51.625513" lon="6.628527"><ele>25.95</ele><time>2025-05-17T12:54:42Z</time></trkpt>
<trkpt lat="51.624578" lon="6.629764"><ele>24.63</ele><time>2025-05-17T12:54:47Z</time></trkpt>
<trkpt lat="51.624524" lon="6.629871"><ele>24.82</ele><time>2025-05-17T12:54:52Z</time></trkpt>
<trkpt lat="51.624449" lon="6.630106"><ele>25.4</ele><time>2025-05-17T12:54:56Z</time></trkpt>
<trkpt lat="51.62443" lon="6.630426"><ele>26.88</ele><time>2025-05-17T12:55:01Z</time></trkpt>
<trkpt lat="51.624522" lon="6.631395"><ele>27.23</ele><time>2025-05-17T12:55:06Z</time></trkpt>
<trkpt lat="51.624549" lon="6.631826"><ele>24.78</ele><time>2025-05-17T12:55:10Z</time></trkpt>
<trkpt lat="51.624542" lon="6.631954"><ele>24.61</ele><time>2025-05-17T12:55:15Z</time></trkpt>
<trkpt lat="51.624493" lon="6.632121"><ele>24.19</ele><time>2025-05-17T12:55:20Z</time></trkpt>
<trkpt lat="51.624167" lon="6.632499"><ele>24.0</ele><time>2025-05-17T12:55:24Z</time></trkpt>
<trkpt lat="51.62388" lon="6.631731"><ele>22.97</ele><time>2025-05-17T12:55:36Z</time></trkpt>
<trkpt lat="51.623748" lon="6.631459"><ele>21.75</ele><time>2025-05-17T12:55:47Z</time></trkpt>
<trkpt lat="51.623117" lon="6.630348"><ele>24.09</ele><time>2025-05-17T12:55:58Z</time></trkpt>
<trkpt lat="51.621392" lon="6.627504"><ele>25.01</ele><time>2025-05-17T12:56:09Z</time></trkpt>
<trkpt lat="51.620184" lon="6.625584"><ele>22.66</ele><time>2025-05-17T12:56:20Z</time></trkpt>
<trkpt lat="51.619803" lon="6.624897"><ele>22.0</ele><time>2025-05-17T12:56:32Z</time></trkpt>
<trkpt lat="51.618851" lon="6.622939"><ele>25.44</ele><time>2025-05-17T12:56:43Z</time></trkpt>
<trkpt lat="51.618411" lon="6.622237"><ele>24.0</ele><time>2025-05-17T12:56:54Z</time></trkpt>
<trkpt lat="51.617841" lon="6.621529"><ele>22.11</ele><time>2025-05-17T12:57:05Z</time></trkpt>
<trkpt lat="51.616901" lon="6.620463"><ele>26.56</ele><time>2025-05-17T12:57:16Z</time></trkpt>
<trkpt lat="51.61562" lon="6.618797"><ele>23.0</ele><time>2025-05-17T12:57:27Z</time></trkpt>
<trkpt lat="51.615546" lon="6.61871"><ele>23.02</ele><time>2025-05-17T12:57:39Z</time></trkpt>
<trkpt lat="51.615317" lon="6.618498"><ele>23.86</ele><time>2025-05-17T12:57:50Z</time></trkpt>
<trkpt lat="51.613964" lon="6.617572"><ele>22.74</ele><time>2025-05-17T12:58:01Z</time></trkpt>
<trkpt lat="51.613705" lon="6.617354"><ele>23.35</ele><time>2025-05-17T12:58:12Z</time></trkpt>
<trkpt lat="51.613289" lon="6.616955"><ele>25.01</ele><time>2025-05-17T12:58:23Z</time></trkpt>
<trkpt lat="51.612545" lon="6.616199"><ele>26.84</ele><time>2025-05-17T12:58:34Z</time></trkpt>
<trkpt lat="51.612233" lon="6.615832"><ele>26.0</ele><time>2025-05-17T12:58:46Z</time></trkpt>
<trkpt lat="51.610871" lon="6.61403"><ele>27.86</ele><time>2025-05-17T12:58:57Z</time></trkpt>
<trkpt lat="51.610757" lon="6.613906"><ele>28.0</ele><time>2025-05-17T12:59:08Z</time></trkpt>
<trkpt lat="51.610663" lon="6.613858"><ele>27.89</ele><time>2025-05-17T12:59:19Z</time></trkpt>
<trkpt lat="51.610584" lon="6.613837"><ele>27.81</ele><time>2025-05-17T12:59:30Z</time></trkpt>
<trkpt lat="51.610422" lon="6.613843"><ele>28.32</ele><time>2025-05-17T12:59:41Z</time></trkpt>
<trkpt lat="51.610344" lon="6.61388"><ele>28.73</ele><time>2025-05-17T12:59:53Z</time></trkpt>
<trkpt lat="51.609803" lon="6.614337"><ele>28.39</ele><time>2025-05-17T13:00:04Z</time></trkpt>
<trkpt lat="51.609695" lon="6.614372"><ele>28.04</ele><time>2025-05-17T13:00:15Z</time></trkpt>
<trkpt lat="51.609403" lon="6.614293"><ele>25.92</ele><time>2025-05-17T13:00:26Z</time></trkpt>
<trkpt lat="51.608114" lon="6.614001"><ele>27.21</ele><time>2025-05-17T13:00:37Z</time></trkpt>
<trkpt lat="51.60762" lon="6.613847"><ele>24.28</ele><time>2025-05-17T13:00:49Z</time></trkpt>
<trkpt lat="51.606537" lon="6.613309"><ele>24.91</ele><time>2025-05-17T13:01:00Z</time></trkpt>
<trkpt lat="51.605866" lon="6.612935"><ele>24.0</ele><time>2025-05-17T13:01:11Z</time></trkpt>
<trkpt lat="51.603305" lon="6.611606"><ele>22.02</ele><time>2025-05-17T13:01:22Z</time></trkpt>
<trkpt lat="51.602719" lon="6.611389"><ele>24.79</ele><time>2025-05-17T13:01:33Z</time></trkpt>
<trkpt lat="51.599654" lon="6.610461"><ele>23.34</ele><time>2025-05-17T13:01:44Z</time></trkpt>
<trkpt lat="51.598298" lon="6.610069"><ele>24.23</ele><time>2025-05-17T13:01:56Z</time></trkpt>
<trkpt lat="51.597551" lon="6.60994"><ele>25.44</ele><time>2025-05-17T13:02:07Z</time></trkpt>
<trkpt lat="51.597551" lon="6.60994"><ele>25.44</ele><time>2025-05-17T13:02:07Z</time></trkpt>
<trkpt lat="51.597036" lon="6.609888"><ele>24.6</ele><time>2025-05-17T13:02:13Z</time></trkpt>
<trkpt lat="51.596596" lon="6.609878"><ele>23.75</ele><time>2025-05-17T13:02:20Z</time></trkpt>
<trkpt lat="51.595816" lon="6.609931"><ele>24.19</ele><time>2025-05-17T13:02:26Z</time></trkpt>
<trkpt lat="51.589797" lon="6.610613"><ele>22.0</ele><time>2025-05-17T13:02:33Z</time></trkpt>
<trkpt lat="51.587718" lon="6.610857"><ele>22.93</ele><time>2025-05-17T13:02:39Z</time></trkpt>
<trkpt lat="51.586732" lon="6.611029"><ele>20.7</ele><time>2025-05-17T13:02:46Z</time></trkpt>
<trkpt lat="51.585894" lon="6.611457"><ele>19.46</ele><time>2025-05-17T13:02:52Z</time></trkpt>
<trkpt lat="51.584603" lon="6.612178"><ele>20.5</ele><time>2025-05-17T13:02:59Z</time></trkpt>
<trkpt lat="51.583957" lon="6.612552"><ele>22.74</ele><time>2025-05-17T13:03:05Z</time></trkpt>
<trkpt lat="51.583345" lon="6.612969"><ele>22.04</ele><time>2025-05-17T13:03:12Z</time></trkpt>
<trkpt lat="51.583124" lon="6.613148"><ele>21.58</ele><time>2025-05-17T13:03:18Z</time></trkpt>
<trkpt lat="51.582734" lon="6.613535"><ele>19.84</ele><time>2025-05-17T13:03:25Z</time></trkpt>
<trkpt lat="51.581793" lon="6.614718"><ele>19.45</ele><time>2025-05-17T13:03:31Z</time></trkpt>
<trkpt lat="51.579726" lon="6.617538"><ele>23.12</ele><time>2025-05-17T13:03:38Z</time></trkpt>
<trkpt lat="51.57952" lon="6.617844"><ele>25.46</ele><time>2025-05-17T13:03:44Z</time></trkpt>
<trkpt lat="51.578984" lon="6.618646"><ele>21.36</ele><time>2025-05-17T13:03:51Z</time></trkpt>
<trkpt lat="51.578494" lon="6.619539"><ele>21.84</ele><time>2025-05-17T13:03:57Z</time></trkpt>
<trkpt lat="51.577433" lon="6.621588"><ele>23.45</ele><time>2025-05-17T13:04:04Z</time></trkpt>
<trkpt lat="51.577233" lon="6.622136"><ele>23.99</ele><time>2025-05-17T13:04:10Z</time></trkpt>
<trkpt lat="51.576794" lon="6.623733"><ele>25.1</ele><time>2025-05-17T13:04:17Z</time></trkpt>
<trkpt lat="51.576543" lon="6.624471"><ele>23.44</ele><time>2025-05-17T13:04:23Z</time></trkpt>
<trkpt lat="51.576346" lon="6.624848"><ele>23.7</ele><time>2025-05-17T13:04:30Z</time></trkpt>
<trkpt lat="51.575744" lon="6.625828"><ele>23.65</ele><time>2025-05-17T13:04:36Z</time></trkpt>
<trkpt lat="51.575067" lon="6.627088"><ele>25.76</ele><time>2025-05-17T13:04:43Z</time></trkpt>
<trkpt lat="51.574737" lon="6.628006"><ele>25.12</ele><time>2025-05-17T13:04:49Z</time></trkpt>
<trkpt lat="51.574395" lon="6.629113"><ele>24.18</ele><time>2025-05-17T13:04:56Z</time></trkpt>
<trkpt lat="51.574182" lon="6.630186"><ele>24.89</ele><time>2025-05-17T13:05:02Z</time></trkpt>
<trkpt lat="51.574008" lon="6.631768"><ele>22.94</ele><time>2025-05-17T13:05:09Z</time></trkpt>
<trkpt lat="51.573944" lon="6.632967"><ele>26.86</ele><time>2025-05-17T13:05:15Z</time></trkpt>
<trkpt lat="51.573946" lon="6.634201"><ele>25.82</ele><time>2025-05-17T13:05:22Z</time></trkpt>
<trkpt lat="51.574013" lon="6.634631"><ele>26.0</ele><time>2025-05-17T13:05:28Z</time></trkpt>
<trkpt lat="51.574089" lon="6.634991"><ele>25.73</ele><time>2025-05-17T13:05:35Z</time></trkpt>
<trkpt lat="51.574255" lon="6.635553"><ele>25.33</ele><time>2025-05-17T13:05:41Z</time></trkpt>
<trkpt lat="51.574402" lon="6.635894"><ele>24.78</ele><time>2025-05-17T13:05:48Z</time></trkpt>
<trkpt lat="51.576213" lon="6.639192"><ele>26.31</ele><time>2025-05-17T13:05:54Z</time></trkpt>
<trkpt lat="51.576731" lon="6.640262"><ele>26.99</ele><time>2025-05-17T13:06:01Z</time></trkpt>
<trkpt lat="51.577665" lon="6.642414"><ele>26.13</ele><time>2025-05-17T13:06:07Z</time></trkpt>
<trkpt lat="51.578289" lon="6.643917"><ele>21.0</ele><time>2025-05-17T13:06:14Z</time></trkpt>
<trkpt lat="51.578852" lon="6.645348"><ele>21.48</ele><time>2025-05-17T13:06:20Z</time></trkpt>
<trkpt lat="51.579366" lon="6.646914"><ele>26.19</ele><time>2025-05-17T13:06:27Z</time></trkpt>
<trkpt lat="51.57966" lon="6.648015"><ele>27.44</ele><time>2025-05-17T13:06:33Z</time></trkpt>
<trkpt lat="51.579766" lon="6.648508"><ele>25.43</ele><time>2025-05-17T13:06:40Z</time></trkpt>
<trkpt lat="51.580322" lon="6.65192"><ele>23.84</ele><time>2025-05-17T13:06:46Z</time></trkpt>
<trkpt lat="51.580485" lon="6.652674"><ele>23.25</ele><time>2025-05-17T13:06:53Z</time></trkpt>
<trkpt lat="51.58082" lon="6.65386"><ele>26.9</ele><time>2025-05-17T13:06:59Z</time></trkpt>
<trkpt lat="51.580894" lon="6.654303"><ele>27.49</ele><time>2025-05-17T13:07:06Z</time></trkpt>
<trkpt lat="51.58094" lon="6.654955"><ele>28.84</ele><time>2025-05-17T13:07:12Z</time></trkpt>
<trkpt lat="51.580916" lon="6.65579"><ele>28.7</ele><time>2025-05-17T13:07:19Z</time></trkpt>
<trkpt lat="51.580825" lon="6.657067"><ele>24.51</ele><time>2025-05-17T13:07:25Z</time></trkpt>
<trkpt lat="51.580433" lon="6.658408"><ele>23.8</ele><time>2025-05-17T13:07:32Z</time></trkpt>
<trkpt lat="51.580295" lon="6.659777"><ele>25.83</ele><time>2025-05-17T13:07:38Z</time></trkpt>
<trkpt lat="51.580303" lon="6.659961"><ele>25.8</ele><time>2025-05-17T13:07:45Z</time></trkpt>
<trkpt lat="51.580371" lon="6.660168"><ele>25.53</ele><time>2025-05-17T13:07:51Z</time></trkpt>
<trkpt lat="51.580667" lon="6.660853"><ele>25.63</ele><time>2025-05-17T13:07:58Z</time></trkpt>
<trkpt lat="51.580793" lon="6.66103"><ele>25.75</ele><time>2025-05-17T13:08:04Z</time></trkpt>
<trkpt lat="51.580759" lon="6.661137"><ele>26.0</ele><time>2025-05-17T13:08:09Z</time></trkpt>
<trkpt lat="51.580776" lon="6.661254"><ele>26.0</ele><time>2025-05-17T13:08:13Z</time></trkpt>
<trkpt lat="51.580676" lon="6.661305"><ele>26.0</ele><time>2025-05-17T13:08:18Z</time></trkpt>
<trkpt lat="51.580394" lon="6.661388"><ele>26.0</ele><time>2025-05-17T13:08:22Z</time></trkpt>
<trkpt lat="51.580283" lon="6.661459"><ele>26.0</ele><time>2025-05-17T13:08:27Z</time></trkpt>
<trkpt lat="51.580187" lon="6.661603"><ele>25.67</ele><time>2025-05-17T13:08:31Z</time></trkpt>
<trkpt lat="51.58012" lon="6.661801"><ele>25.43</ele><time>2025-05-17T13:08:36Z</time></trkpt>
<trkpt lat="51.580083" lon="6.662058"><ele>25.58</ele><time>2025-05-17T13:08:40Z</time></trkpt>
<trkpt lat="51.580048" lon="6.662505"><ele>26.0</ele><time>2025-05-17T13:08:44Z</time></trkpt>
<trkpt lat="51.579728" lon="6.66367"><ele>25.22</ele><time>2025-05-17T13:08:49Z</time></trkpt>
<trkpt lat="51.579681" lon="6.664167"><ele>26.0</ele><time>2025-05-17T13:08:53Z</time></trkpt>
<trkpt lat="51.579649" lon="6.665058"><ele>25.21</ele><time>2025-05-17T13:08:58Z</time></trkpt>
<trkpt lat="51.579637" lon="6.666265"><ele>22.91</ele><time>2025-05-17T13:09:02Z</time></trkpt>
<trkpt lat="51.579614" lon="6.666723"><ele>22.44</ele><time>2025-05-17T13:09:07Z</time></trkpt>
<trkpt lat="51.579356" lon="6.66826"><ele>25.23</ele><time>2025-05-17T13:09:11Z</time></trkpt>
<trkpt lat="51.579018" lon="6.672072"><ele>27.08</ele><time>2025-05-17T13:09:16Z</time></trkpt>
<trkpt lat="51.579006" lon="6.67258"><ele>26.53</ele><time>2025-05-17T13:09:20Z</time></trkpt>
<trkpt lat="51.579026" lon="6.673471"><ele>24.99</ele><time>2025-05-17T13:09:24Z</time></trkpt>
<trkpt lat="51.57906" lon="6.673743"><ele>25.42</ele><time>2025-05-17T13:09:29Z</time></trkpt>
<trkpt lat="51.579126" lon="6.674076"><ele>25.85</ele><time>2025-05-17T13:09:33Z</time></trkpt>
<trkpt lat="51.579232" lon="6.674415"><ele>26.0</ele><time>2025-05-17T13:09:38Z</time></trkpt>
<trkpt lat="51.579347" lon="6.674707"><ele>26.0</ele><time>2025-05-17T13:09:42Z</time></trkpt>
<trkpt lat="51.581494" lon="6.679243"><ele>30.21</ele><time>2025-05-17T13:09:47Z</time></trkpt>
<trkpt lat="51.57943" lon="6.681482"><ele>27.94</ele><time>2025-05-17T13:09:53Z</time></trkpt>
<trkpt lat="51.579051" lon="6.681988"><ele>39.77</ele><time>2025-05-17T13:09:59Z</time></trkpt>
<trkpt lat="51.577437" lon="6.684643"><ele>38.23</ele><time>2025-05-17T13:10:06Z</time></trkpt>
<trkpt lat="51.576851" lon="6.685855"><ele>41.02</ele><time>2025-05-17T13:10:12Z</time></trkpt>
<trkpt lat="51.576353" lon="6.686666"><ele>33.64</ele><time>2025-05-17T13:10:18Z</time></trkpt>
<trkpt lat="51.575471" lon="6.687977"><ele>35.03</ele><time>2025-05-17T13:10:25Z</time></trkpt>
<trkpt lat="51.575311" lon="6.688118"><ele>34.15</ele><time>2025-05-17T13:10:31Z</time></trkpt>
<trkpt lat="51.575146" lon="6.688177"><ele>32.67</ele><time>2025-05-17T13:10:37Z</time></trkpt>
<trkpt lat="51.57504" lon="6.688189"><ele>31.45</ele><time>2025-05-17T13:10:44Z</time></trkpt>
<trkpt lat="51.574522" lon="6.687923"><ele>30.07</ele><time>2025-05-17T13:10:50Z</time></trkpt>
<trkpt lat="51.574208" lon="6.687834"><ele>31.65</ele><time>2025-05-17T13:10:56Z</time></trkpt>
<trkpt lat="51.5739" lon="6.687862"><ele>30.07</ele><time>2025-05-17T13:11:03Z</time></trkpt>
<trkpt lat="51.573437" lon="6.687984"><ele>29.37</ele><time>2025-05-17T13:11:09Z</time></trkpt>
<trkpt lat="51.573108" lon="6.688136"><ele>27.96</ele><time>2025-05-17T13:11:15Z</time></trkpt>
<trkpt lat="51.572924" lon="6.688236"><ele>27.96</ele><time>2025-05-17T13:11:22Z</time></trkpt>
<trkpt lat="51.572708" lon="6.688417"><ele>29.0</ele><time>2025-05-17T13:11:28Z</time></trkpt>
<trkpt lat="51.572524" lon="6.688653"><ele>28.85</ele><time>2025-05-17T13:11:34Z</time></trkpt>
<trkpt lat="51.572393" lon="6.688902"><ele>27.23</ele><time>2025-05-17T13:11:41Z</time></trkpt>
<trkpt lat="51.572308" lon="6.689131"><ele>26.62</ele><time>2025-05-17T13:11:47Z</time></trkpt>
<trkpt lat="51.572191" lon="6.689527"><ele>24.89</ele><time>2025-05-17T13:11:53Z</time></trkpt>
<trkpt lat="51.572081" lon="6.689784"><ele>24.6</ele><time>2025-05-17T13:12:00Z</time></trkpt>
<trkpt lat="51.571215" lon="6.691075"><ele>25.87</ele><time>2025-05-17T13:12:06Z</time></trkpt>
<trkpt lat="51.57102" lon="6.69139"><ele>26.0</ele><time>2025-05-17T13:12:12Z</time></trkpt>
<trkpt lat="51.570843" lon="6.691791"><ele>26.0</ele><time>2025-05-17T13:12:19Z</time></trkpt>
<trkpt lat="51.570337" lon="6.693116"><ele>27.18</ele><time>2025-05-17T13:12:25Z</time></trkpt>
<trkpt lat="51.570227" lon="6.693288"><ele>28.49</ele><time>2025-05-17T13:12:31Z</time></trkpt>
<trkpt lat="51.570035" lon="6.693503"><ele>28.66</ele><time>2025-05-17T13:12:38Z</time></trkpt>
<trkpt lat="51.569579" lon="6.693935"><ele>26.97</ele><time>2025-05-17T13:12:44Z</time></trkpt>
<trkpt lat="51.56943" lon="6.694111"><ele>25.99</ele><time>2025-05-17T13:12:50Z</time></trkpt>
<trkpt lat="51.569313" lon="6.694288"><ele>26.44</ele><time>2025-05-17T13:12:57Z</time></trkpt>
<trkpt lat="51.569205" lon="6.694515"><ele>27.0</ele><time>2025-05-17T13:13:03Z</time></trkpt>
<trkpt lat="51.569058" lon="6.695021"><ele>27.0</ele><time>2025-05-17T13:13:09Z</time></trkpt>
<trkpt lat="51.568822" lon="6.695357"><ele>27.28</ele><time>2025-05-17T13:13:16Z</time></trkpt>
<trkpt lat="51.567561" lon="6.696992"><ele>27.18</ele><time>2025-05-17T13:13:22Z</time></trkpt>
<trkpt lat="51.566981" lon="6.69774"><ele>27.88</ele><time>2025-05-17T13:13:28Z</time></trkpt>
<trkpt lat="51.565909" lon="6.699044"><ele>26.0</ele><time>2025-05-17T13:13:35Z</time></trkpt>
<trkpt lat="51.565678" lon="6.699373"><ele>26.14</ele><time>2025-05-17T13:13:41Z</time></trkpt>
<trkpt lat="51.564744" lon="6.701196"><ele>27.0</ele><time>2025-05-17T13:13:47Z</time></trkpt>
<trkpt lat="51.564191" lon="6.702102"><ele>27.0</ele><time>2025-05-17T13:13:54Z</time></trkpt>
<trkpt lat="51.564058" lon="6.702283"><ele>27.0</ele><time>2025-05-17T13:14:00Z</time></trkpt>
<trkpt lat="51.563528" lon="6.700979"><ele>27.82</ele><time>2025-05-17T13:14:16Z</time></trkpt>
<trkpt lat="51.563327" lon="6.700546"><ele>27.94</ele><time>2025-05-17T13:14:33Z</time></trkpt>
<trkpt lat="51.563125" lon="6.700282"><ele>27.0</ele><time>2025-05-17T13:14:49Z</time></trkpt>
<trkpt lat="51.562606" lon="6.699856"><ele>28.1</ele><time>2025-05-17T13:15:06Z</time></trkpt>
<trkpt lat="51.562132" lon="6.69938"><ele>27.0</ele><time>2025-05-17T13:15:22Z</time></trkpt>
<trkpt lat="51.561957" lon="6.699093"><ele>27.0</ele><time>2025-05-17T13:15:38Z</time></trkpt>
<trkpt lat="51.563031" lon="6.696898"><ele>25.91</ele><time>2025-05-17T13:16:18Z</time></trkpt>
<trkpt lat="51.563055" lon="6.696929"><ele>26.0</ele><time>2025-05-17T13:16:20Z</time></trkpt>
<trkpt lat="51.563055" lon="6.696929"><ele>26.0</ele><time>2025-05-17T13:16:21Z</time></trkpt>
<trkpt lat="51.56319" lon="6.697092"><ele>26.6</ele><time>2025-05-17T13:16:23Z</time></trkpt>
</trkseg>
</trk>
</gpx>